sensor_id;sensor_type;location;lat;lon;timestamp;temperature;humidity
23114;DHT22;11726;50.122;8.832;2023-06-04T00:00:35;15.00;90.40
23114;DHT22;11726;50.122;8.832;2023-06-04T00:03:01;15.10;90.90
23114;DHT22;11726;50.122;8.832;2023-06-04T00:05:29;15.10;90.50
23114;DHT22;11726;50.122;8.832;2023-06-04T00:07:55;15.10;91.80
23114;DHT22;11726;50.122;8.832;2023-06-04T00:10:22;15.30;91.20
23114;DHT22;11726;50.122;8.832;2023-06-04T00:12:49;15.10;91.00
23114;DHT22;11726;50.122;8.832;2023-06-04T00:15:15;15.20;90.70
23114;DHT22;11726;50.122;8.832;2023-06-04T00:17:43;15.20;91.60
23114;DHT22;11726;50.122;8.832;2023-06-04T00:20:11;15.20;92.70
23114;DHT22;11726;50.122;8.832;2023-06-04T00:22:38;15.10;92.00
23114;DHT22;11726;50.122;8.832;2023-06-04T00:25:11;15.10;91.30
23114;DHT22;11726;50.122;8.832;2023-06-04T00:27:37;14.90;92.00
23114;DHT22;11726;50.122;8.832;2023-06-04T00:30:04;14.90;92.30
23114;DHT22;11726;50.122;8.832;2023-06-04T00:32:31;14.90;92.30
23114;DHT22;11726;50.122;8.832;2023-06-04T00:34:58;15.00;92.80
23114;DHT22;11726;50.122;8.832;2023-06-04T00:37:25;15.00;92.90
23114;DHT22;11726;50.122;8.832;2023-06-04T00:39:52;14.80;92.80
23114;DHT22;11726;50.122;8.832;2023-06-04T00:42:19;14.90;93.30
23114;DHT22;11726;50.122;8.832;2023-06-04T00:44:46;15.00;93.80
23114;DHT22;11726;50.122;8.832;2023-06-04T00:47:18;14.90;93.70
23114;DHT22;11726;50.122;8.832;2023-06-04T00:49:46;14.80;94.20
23114;DHT22;11726;50.122;8.832;2023-06-04T00:52:15;14.70;94.20
23114;DHT22;11726;50.122;8.832;2023-06-04T00:54:42;14.60;94.80
23114;DHT22;11726;50.122;8.832;2023-06-04T00:57:09;14.60;94.60
23114;DHT22;11726;50.122;8.832;2023-06-04T00:59:38;14.60;95.20
23114;DHT22;11726;50.122;8.832;2023-06-04T01:02:13;14.70;95.80
23114;DHT22;11726;50.122;8.832;2023-06-04T01:04:53;14.70;96.20
23114;DHT22;11726;50.122;8.832;2023-06-04T01:07:22;14.60;96.30
23114;DHT22;11726;50.122;8.832;2023-06-04T01:09:49;14.60;97.20
23114;DHT22;11726;50.122;8.832;2023-06-04T01:12:17;14.60;97.70
23114;DHT22;11726;50.122;8.832;2023-06-04T01:14:43;14.50;97.40
23114;DHT22;11726;50.122;8.832;2023-06-04T01:23:14;14.30;96.10
23114;DHT22;11726;50.122;8.832;2023-06-04T01:25:41;14.20;96.90
23114;DHT22;11726;50.122;8.832;2023-06-04T01:28:12;14.40;97.70
23114;DHT22;11726;50.122;8.832;2023-06-04T01:30:44;14.20;96.30
23114;DHT22;11726;50.122;8.832;2023-06-04T01:33:14;14.10;96.70
23114;DHT22;11726;50.122;8.832;2023-06-04T01:35:41;14.30;98.10
23114;DHT22;11726;50.122;8.832;2023-06-04T01:38:08;14.50;96.90
23114;DHT22;11726;50.122;8.832;2023-06-04T01:40:35;14.40;97.00
23114;DHT22;11726;50.122;8.832;2023-06-04T01:43:02;14.30;97.10
23114;DHT22;11726;50.122;8.832;2023-06-04T01:45:29;14.20;97.80
23114;DHT22;11726;50.122;8.832;2023-06-04T01:47:57;14.20;98.80
23114;DHT22;11726;50.122;8.832;2023-06-04T01:50:23;14.10;98.10
23114;DHT22;11726;50.122;8.832;2023-06-04T01:52:50;14.00;98.10
23114;DHT22;11726;50.122;8.832;2023-06-04T01:55:18;14.10;99.00
23114;DHT22;11726;50.122;8.832;2023-06-04T01:57:46;14.00;99.10
23114;DHT22;11726;50.122;8.832;2023-06-04T02:00:14;14.00;99.00
23114;DHT22;11726;50.122;8.832;2023-06-04T02:02:43;14.00;99.10
23114;DHT22;11726;50.122;8.832;2023-06-04T02:05:10;13.90;99.90
23114;DHT22;11726;50.122;8.832;2023-06-04T02:07:38;13.80;99.90
23114;DHT22;11726;50.122;8.832;2023-06-04T02:12:36;13.80;99.40
23114;DHT22;11726;50.122;8.832;2023-06-04T02:15:04;13.80;99.40
23114;DHT22;11726;50.122;8.832;2023-06-04T02:17:31;13.80;99.60
23114;DHT22;11726;50.122;8.832;2023-06-04T02:19:59;13.80;99.60
23114;DHT22;11726;50.122;8.832;2023-06-04T02:22:27;13.70;99.90
23114;DHT22;11726;50.122;8.832;2023-06-04T02:24:54;13.80;99.90
23114;DHT22;11726;50.122;8.832;2023-06-04T02:27:21;13.70;99.90
23114;DHT22;11726;50.122;8.832;2023-06-04T02:29:47;13.70;99.90
23114;DHT22;11726;50.122;8.832;2023-06-04T02:32:14;13.70;99.90
23114;DHT22;11726;50.122;8.832;2023-06-04T02:34:41;13.60;99.90
23114;DHT22;11726;50.122;8.832;2023-06-04T02:37:07;13.60;99.90
23114;DHT22;11726;50.122;8.832;2023-06-04T02:39:35;13.50;99.90
23114;DHT22;11726;50.122;8.832;2023-06-04T02:42:01;13.60;99.90
23114;DHT22;11726;50.122;8.832;2023-06-04T02:44:28;13.70;99.90
23114;DHT22;11726;50.122;8.832;2023-06-04T02:46:56;13.60;99.90
23114;DHT22;11726;50.122;8.832;2023-06-04T02:49:23;13.40;99.90
23114;DHT22;11726;50.122;8.832;2023-06-04T02:51:50;13.50;99.90
23114;DHT22;11726;50.122;8.832;2023-06-04T02:54:17;13.40;99.90
23114;DHT22;11726;50.122;8.832;2023-06-04T02:56:44;13.30;99.90
23114;DHT22;11726;50.122;8.832;2023-06-04T02:59:11;13.40;99.90
23114;DHT22;11726;50.122;8.832;2023-06-04T03:01:40;13.40;99.90
23114;DHT22;11726;50.122;8.832;2023-06-04T03:04:07;13.50;99.90
23114;DHT22;11726;50.122;8.832;2023-06-04T03:06:37;13.30;99.90
23114;DHT22;11726;50.122;8.832;2023-06-04T03:09:07;13.30;99.90
23114;DHT22;11726;50.122;8.832;2023-06-04T03:11:34;13.30;99.90
23114;DHT22;11726;50.122;8.832;2023-06-04T03:14:00;13.30;99.90
23114;DHT22;11726;50.122;8.832;2023-06-04T03:16:27;13.20;99.90
23114;DHT22;11726;50.122;8.832;2023-06-04T03:18:54;13.10;99.90
23114;DHT22;11726;50.122;8.832;2023-06-04T03:21:22;13.00;99.90
23114;DHT22;11726;50.122;8.832;2023-06-04T03:23:49;13.00;99.90
23114;DHT22;11726;50.122;8.832;2023-06-04T03:26:15;13.00;99.90
23114;DHT22;11726;50.122;8.832;2023-06-04T03:28:42;12.90;99.90
23114;DHT22;11726;50.122;8.832;2023-06-04T03:31:09;13.00;99.90
23114;DHT22;11726;50.122;8.832;2023-06-04T03:33:36;13.00;99.90
23114;DHT22;11726;50.122;8.832;2023-06-04T03:36:03;13.10;99.90
23114;DHT22;11726;50.122;8.832;2023-06-04T03:38:30;13.10;99.90
23114;DHT22;11726;50.122;8.832;2023-06-04T03:40:56;13.00;99.90
23114;DHT22;11726;50.122;8.832;2023-06-04T03:43:23;13.00;99.90
23114;DHT22;11726;50.122;8.832;2023-06-04T03:45:50;12.90;99.90
23114;DHT22;11726;50.122;8.832;2023-06-04T03:48:17;12.90;99.90
23114;DHT22;11726;50.122;8.832;2023-06-04T03:50:43;12.70;99.90
23114;DHT22;11726;50.122;8.832;2023-06-04T03:53:12;12.80;99.90
23114;DHT22;11726;50.122;8.832;2023-06-04T03:55:39;12.90;99.90
23114;DHT22;11726;50.122;8.832;2023-06-04T03:58:06;12.90;99.90
23114;DHT22;11726;50.122;8.832;2023-06-04T04:00:37;13.00;99.90
23114;DHT22;11726;50.122;8.832;2023-06-04T04:03:04;13.00;99.90
23114;DHT22;11726;50.122;8.832;2023-06-04T04:05:31;12.90;99.90
23114;DHT22;11726;50.122;8.832;2023-06-04T04:07:58;12.90;99.90
23114;DHT22;11726;50.122;8.832;2023-06-04T04:10:25;13.00;99.90
23114;DHT22;11726;50.122;8.832;2023-06-04T04:12:51;13.10;99.90
23114;DHT22;11726;50.122;8.832;2023-06-04T04:15:21;13.10;99.90
23114;DHT22;11726;50.122;8.832;2023-06-04T04:17:48;13.00;99.90
23114;DHT22;11726;50.122;8.832;2023-06-04T04:20:15;13.00;99.90
23114;DHT22;11726;50.122;8.832;2023-06-04T04:22:42;13.10;99.90
23114;DHT22;11726;50.122;8.832;2023-06-04T04:25:09;13.10;99.90
23114;DHT22;11726;50.122;8.832;2023-06-04T04:27:36;13.20;99.90
23114;DHT22;11726;50.122;8.832;2023-06-04T04:30:07;13.20;99.90
23114;DHT22;11726;50.122;8.832;2023-06-04T04:32:34;13.20;99.90
23114;DHT22;11726;50.122;8.832;2023-06-04T04:35:05;13.10;99.90
23114;DHT22;11726;50.122;8.832;2023-06-04T04:37:34;13.20;99.90
23114;DHT22;11726;50.122;8.832;2023-06-04T04:40:06;13.20;99.90
23114;DHT22;11726;50.122;8.832;2023-06-04T04:42:36;13.10;99.90
23114;DHT22;11726;50.122;8.832;2023-06-04T04:45:03;13.20;99.90
23114;DHT22;11726;50.122;8.832;2023-06-04T04:47:30;13.30;99.90
23114;DHT22;11726;50.122;8.832;2023-06-04T04:49:57;13.30;99.90
23114;DHT22;11726;50.122;8.832;2023-06-04T04:52:24;13.40;99.90
23114;DHT22;11726;50.122;8.832;2023-06-04T04:54:51;13.40;99.90
23114;DHT22;11726;50.122;8.832;2023-06-04T04:57:22;13.30;99.90
23114;DHT22;11726;50.122;8.832;2023-06-04T04:59:49;13.50;99.90
23114;DHT22;11726;50.122;8.832;2023-06-04T05:02:16;13.60;99.90
23114;DHT22;11726;50.122;8.832;2023-06-04T05:04:43;13.60;99.90
23114;DHT22;11726;50.122;8.832;2023-06-04T05:07:10;13.60;99.90
23114;DHT22;11726;50.122;8.832;2023-06-04T05:09:36;13.70;99.90
23114;DHT22;11726;50.122;8.832;2023-06-04T05:12:03;13.70;99.90
23114;DHT22;11726;50.122;8.832;2023-06-04T05:14:30;13.70;99.90
23114;DHT22;11726;50.122;8.832;2023-06-04T05:17:13;13.70;99.90
23114;DHT22;11726;50.122;8.832;2023-06-04T05:19:49;13.80;99.90
23114;DHT22;11726;50.122;8.832;2023-06-04T05:22:15;13.70;99.90
23114;DHT22;11726;50.122;8.832;2023-06-04T05:24:45;13.80;99.90
23114;DHT22;11726;50.122;8.832;2023-06-04T05:27:11;13.90;99.90
23114;DHT22;11726;50.122;8.832;2023-06-04T05:29:38;14.00;99.90
23114;DHT22;11726;50.122;8.832;2023-06-04T05:32:05;14.10;99.90
23114;DHT22;11726;50.122;8.832;2023-06-04T05:34:32;14.20;99.90
23114;DHT22;11726;50.122;8.832;2023-06-04T05:36:59;14.20;99.90
23114;DHT22;11726;50.122;8.832;2023-06-04T05:39:26;14.50;99.90
23114;DHT22;11726;50.122;8.832;2023-06-04T05:41:52;14.50;99.90
23114;DHT22;11726;50.122;8.832;2023-06-04T05:44:19;14.40;99.90
23114;DHT22;11726;50.122;8.832;2023-06-04T05:46:46;14.50;99.90
23114;DHT22;11726;50.122;8.832;2023-06-04T05:49:13;14.60;99.90
23114;DHT22;11726;50.122;8.832;2023-06-04T05:51:41;14.60;99.90
23114;DHT22;11726;50.122;8.832;2023-06-04T05:54:08;14.70;99.90
23114;DHT22;11726;50.122;8.832;2023-06-04T05:56:35;14.80;99.90
23114;DHT22;11726;50.122;8.832;2023-06-04T05:59:01;15.00;99.90
23114;DHT22;11726;50.122;8.832;2023-06-04T06:01:28;15.10;99.90
23114;DHT22;11726;50.122;8.832;2023-06-04T06:03:56;15.20;99.90
23114;DHT22;11726;50.122;8.832;2023-06-04T06:06:25;15.30;99.90
23114;DHT22;11726;50.122;8.832;2023-06-04T06:08:54;15.40;99.90
23114;DHT22;11726;50.122;8.832;2023-06-04T06:11:21;15.40;99.90
23114;DHT22;11726;50.122;8.832;2023-06-04T06:13:48;15.40;99.70
23114;DHT22;11726;50.122;8.832;2023-06-04T06:16:15;15.30;99.90
23114;DHT22;11726;50.122;8.832;2023-06-04T06:18:44;15.40;99.90
23114;DHT22;11726;50.122;8.832;2023-06-04T06:21:10;15.60;99.90
23114;DHT22;11726;50.122;8.832;2023-06-04T06:23:37;15.60;98.90
23114;DHT22;11726;50.122;8.832;2023-06-04T06:26:04;15.70;99.40
23114;DHT22;11726;50.122;8.832;2023-06-04T06:28:35;15.80;98.10
23114;DHT22;11726;50.122;8.832;2023-06-04T06:31:02;16.00;98.50
23114;DHT22;11726;50.122;8.832;2023-06-04T06:33:29;16.20;97.60
23114;DHT22;11726;50.122;8.832;2023-06-04T06:35:57;16.20;97.50
23114;DHT22;11726;50.122;8.832;2023-06-04T06:38:27;16.30;96.80
23114;DHT22;11726;50.122;8.832;2023-06-04T06:40:54;16.30;96.50
23114;DHT22;11726;50.122;8.832;2023-06-04T06:43:22;16.50;96.00
23114;DHT22;11726;50.122;8.832;2023-06-04T06:45:49;16.60;95.00
23114;DHT22;11726;50.122;8.832;2023-06-04T06:48:17;16.60;95.60
23114;DHT22;11726;50.122;8.832;2023-06-04T06:50:43;16.70;94.60
23114;DHT22;11726;50.122;8.832;2023-06-04T06:53:10;16.70;95.20
23114;DHT22;11726;50.122;8.832;2023-06-04T06:55:37;16.80;95.80
23114;DHT22;11726;50.122;8.832;2023-06-04T06:58:04;16.70;94.60
23114;DHT22;11726;50.122;8.832;2023-06-04T07:00:31;16.90;94.60
23114;DHT22;11726;50.122;8.832;2023-06-04T07:02:57;16.90;95.40
23114;DHT22;11726;50.122;8.832;2023-06-04T07:05:25;17.10;94.30
23114;DHT22;11726;50.122;8.832;2023-06-04T07:07:51;17.20;95.00
23114;DHT22;11726;50.122;8.832;2023-06-04T07:10:18;17.40;94.90
23114;DHT22;11726;50.122;8.832;2023-06-04T07:13:06;17.40;94.60
23114;DHT22;11726;50.122;8.832;2023-06-04T07:15:39;17.60;94.70
23114;DHT22;11726;50.122;8.832;2023-06-04T07:18:08;17.60;93.20
23114;DHT22;11726;50.122;8.832;2023-06-04T07:20:35;17.60;92.50
23114;DHT22;11726;50.122;8.832;2023-06-04T07:23:03;17.60;92.80
23114;DHT22;11726;50.122;8.832;2023-06-04T07:25:30;17.70;93.40
23114;DHT22;11726;50.122;8.832;2023-06-04T07:27:57;17.90;92.60
23114;DHT22;11726;50.122;8.832;2023-06-04T07:30:25;17.90;92.00
23114;DHT22;11726;50.122;8.832;2023-06-04T07:32:53;17.80;92.30
23114;DHT22;11726;50.122;8.832;2023-06-04T07:35:20;18.00;92.90
23114;DHT22;11726;50.122;8.832;2023-06-04T07:37:50;18.10;92.10
23114;DHT22;11726;50.122;8.832;2023-06-04T07:40:17;18.30;93.40
23114;DHT22;11726;50.122;8.832;2023-06-04T07:42:45;18.50;92.30
23114;DHT22;11726;50.122;8.832;2023-06-04T07:45:12;18.60;93.10
23114;DHT22;11726;50.122;8.832;2023-06-04T07:47:39;18.80;91.30
23114;DHT22;11726;50.122;8.832;2023-06-04T07:50:06;18.80;91.00
23114;DHT22;11726;50.122;8.832;2023-06-04T07:52:33;18.90;91.30
23114;DHT22;11726;50.122;8.832;2023-06-04T07:55:00;18.80;91.00
23114;DHT22;11726;50.122;8.832;2023-06-04T07:57:27;18.90;90.10
23114;DHT22;11726;50.122;8.832;2023-06-04T07:59:54;18.90;92.00
23114;DHT22;11726;50.122;8.832;2023-06-04T08:02:21;19.00;90.60
23114;DHT22;11726;50.122;8.832;2023-06-04T08:04:48;19.10;90.70
23114;DHT22;11726;50.122;8.832;2023-06-04T08:10:41;19.30;91.00
23114;DHT22;11726;50.122;8.832;2023-06-04T08:13:08;19.70;89.10
23114;DHT22;11726;50.122;8.832;2023-06-04T08:15:36;19.80;86.60
23114;DHT22;11726;50.122;8.832;2023-06-04T08:18:03;19.60;85.50
23114;DHT22;11726;50.122;8.832;2023-06-04T08:20:30;19.60;88.90
23114;DHT22;11726;50.122;8.832;2023-06-04T08:22:56;19.90;86.30
23114;DHT22;11726;50.122;8.832;2023-06-04T08:25:23;20.10;87.30
23114;DHT22;11726;50.122;8.832;2023-06-04T08:27:50;20.20;84.70
23114;DHT22;11726;50.122;8.832;2023-06-04T08:30:17;20.20;83.20
23114;DHT22;11726;50.122;8.832;2023-06-04T08:32:44;20.40;84.00
23114;DHT22;11726;50.122;8.832;2023-06-04T08:35:11;20.50;83.40
23114;DHT22;11726;50.122;8.832;2023-06-04T08:37:37;20.80;82.00
23114;DHT22;11726;50.122;8.832;2023-06-04T08:40:05;20.90;73.50
23114;DHT22;11726;50.122;8.832;2023-06-04T08:42:38;20.80;70.20
23114;DHT22;11726;50.122;8.832;2023-06-04T08:45:08;21.00;71.60
23114;DHT22;11726;50.122;8.832;2023-06-04T08:47:39;21.20;70.90
23114;DHT22;11726;50.122;8.832;2023-06-04T08:50:10;21.30;68.30
23114;DHT22;11726;50.122;8.832;2023-06-04T08:52:38;21.50;69.30
23114;DHT22;11726;50.122;8.832;2023-06-04T08:55:06;21.40;66.60
23114;DHT22;11726;50.122;8.832;2023-06-04T08:57:35;21.40;65.30
23114;DHT22;11726;50.122;8.832;2023-06-04T09:00:02;21.60;65.90
23114;DHT22;11726;50.122;8.832;2023-06-04T09:02:35;21.60;66.40
23114;DHT22;11726;50.122;8.832;2023-06-04T09:05:04;21.50;64.00
23114;DHT22;11726;50.122;8.832;2023-06-04T09:07:31;21.80;64.20
23114;DHT22;11726;50.122;8.832;2023-06-04T09:10:01;21.80;62.60
23114;DHT22;11726;50.122;8.832;2023-06-04T09:12:42;21.70;62.80
23114;DHT22;11726;50.122;8.832;2023-06-04T09:15:10;21.70;63.40
23114;DHT22;11726;50.122;8.832;2023-06-04T09:17:37;21.90;63.30
23114;DHT22;11726;50.122;8.832;2023-06-04T09:20:05;21.90;63.40
23114;DHT22;11726;50.122;8.832;2023-06-04T09:22:36;22.20;60.30
23114;DHT22;11726;50.122;8.832;2023-06-04T09:25:05;22.30;63.50
23114;DHT22;11726;50.122;8.832;2023-06-04T09:27:40;22.30;62.30
23114;DHT22;11726;50.122;8.832;2023-06-04T09:30:07;22.40;59.70
23114;DHT22;11726;50.122;8.832;2023-06-04T09:32:37;22.40;60.70
23114;DHT22;11726;50.122;8.832;2023-06-04T09:37:38;22.30;58.80
23114;DHT22;11726;50.122;8.832;2023-06-04T09:40:06;22.00;59.20
23114;DHT22;11726;50.122;8.832;2023-06-04T09:42:47;22.20;60.70
23114;DHT22;11726;50.122;8.832;2023-06-04T09:45:27;22.30;58.10
23114;DHT22;11726;50.122;8.832;2023-06-04T09:47:55;22.30;57.70
23114;DHT22;11726;50.122;8.832;2023-06-04T09:50:33;22.60;57.70
23114;DHT22;11726;50.122;8.832;2023-06-04T09:53:18;22.30;55.70
23114;DHT22;11726;50.122;8.832;2023-06-04T09:55:56;22.40;57.00
23114;DHT22;11726;50.122;8.832;2023-06-04T09:58:28;22.80;58.40
23114;DHT22;11726;50.122;8.832;2023-06-04T10:01:01;23.30;57.40
23114;DHT22;11726;50.122;8.832;2023-06-04T10:03:33;23.50;55.40
23114;DHT22;11726;50.122;8.832;2023-06-04T10:06:05;23.20;55.40
23114;DHT22;11726;50.122;8.832;2023-06-04T10:08:33;23.10;54.10
23114;DHT22;11726;50.122;8.832;2023-06-04T10:11:02;23.10;54.50
23114;DHT22;11726;50.122;8.832;2023-06-04T10:13:31;23.10;56.70
23114;DHT22;11726;50.122;8.832;2023-06-04T10:16:02;23.50;55.40
23114;DHT22;11726;50.122;8.832;2023-06-04T10:18:30;23.30;53.20
23114;DHT22;11726;50.122;8.832;2023-06-04T10:20:57;23.30;55.50
23114;DHT22;11726;50.122;8.832;2023-06-04T10:23:25;23.60;54.20
23114;DHT22;11726;50.122;8.832;2023-06-04T10:25:52;23.40;52.70
23114;DHT22;11726;50.122;8.832;2023-06-04T10:28:21;23.30;52.70
23114;DHT22;11726;50.122;8.832;2023-06-04T10:30:49;23.80;54.60
23114;DHT22;11726;50.122;8.832;2023-06-04T10:33:22;23.90;53.50
23114;DHT22;11726;50.122;8.832;2023-06-04T10:35:54;24.10;53.90
23114;DHT22;11726;50.122;8.832;2023-06-04T10:38:22;24.00;51.20
23114;DHT22;11726;50.122;8.832;2023-06-04T10:40:48;24.10;52.20
23114;DHT22;11726;50.122;8.832;2023-06-04T10:43:15;24.00;51.10
23114;DHT22;11726;50.122;8.832;2023-06-04T10:45:45;24.10;49.30
23114;DHT22;11726;50.122;8.832;2023-06-04T10:48:12;24.30;50.90
23114;DHT22;11726;50.122;8.832;2023-06-04T10:50:50;24.30;50.60
23114;DHT22;11726;50.122;8.832;2023-06-04T10:53:18;24.70;50.90
23114;DHT22;11726;50.122;8.832;2023-06-04T10:55:49;24.70;50.70
23114;DHT22;11726;50.122;8.832;2023-06-04T10:58:16;25.00;48.70
23114;DHT22;11726;50.122;8.832;2023-06-04T11:00:45;24.90;47.90
23114;DHT22;11726;50.122;8.832;2023-06-04T11:03:13;24.70;47.80
23114;DHT22;11726;50.122;8.832;2023-06-04T11:05:43;24.60;47.60
23114;DHT22;11726;50.122;8.832;2023-06-04T11:08:12;24.80;49.00
23114;DHT22;11726;50.122;8.832;2023-06-04T11:10:44;24.80;48.40
23114;DHT22;11726;50.122;8.832;2023-06-04T11:13:12;25.10;46.50
23114;DHT22;11726;50.122;8.832;2023-06-04T11:15:47;25.00;45.00
23114;DHT22;11726;50.122;8.832;2023-06-04T11:18:30;25.40;45.90
23114;DHT22;11726;50.122;8.832;2023-06-04T11:21:00;25.30;44.60
23114;DHT22;11726;50.122;8.832;2023-06-04T11:23:30;25.30;45.30
23114;DHT22;11726;50.122;8.832;2023-06-04T11:25:57;25.20;45.00
23114;DHT22;11726;50.122;8.832;2023-06-04T11:28:25;25.20;46.40
23114;DHT22;11726;50.122;8.832;2023-06-04T11:31:02;25.30;47.10
23114;DHT22;11726;50.122;8.832;2023-06-04T11:33:51;25.00;43.50
23114;DHT22;11726;50.122;8.832;2023-06-04T11:36:29;25.10;46.20
23114;DHT22;11726;50.122;8.832;2023-06-04T11:38:58;25.40;45.00
23114;DHT22;11726;50.122;8.832;2023-06-04T11:41:32;25.70;45.20
23114;DHT22;11726;50.122;8.832;2023-06-04T11:44:03;26.00;45.60
23114;DHT22;11726;50.122;8.832;2023-06-04T11:47:28;25.80;44.30
23114;DHT22;11726;50.122;8.832;2023-06-04T11:50:07;25.70;43.00
23114;DHT22;11726;50.122;8.832;2023-06-04T11:52:45;25.90;45.40
23114;DHT22;11726;50.122;8.832;2023-06-04T11:55:31;26.10;43.40
23114;DHT22;11726;50.122;8.832;2023-06-04T11:58:56;26.10;42.40
23114;DHT22;11726;50.122;8.832;2023-06-04T12:01:44;25.80;41.50
23114;DHT22;11726;50.122;8.832;2023-06-04T12:06:51;26.30;43.40
23114;DHT22;11726;50.122;8.832;2023-06-04T12:09:23;26.40;43.90
23114;DHT22;11726;50.122;8.832;2023-06-04T12:11:50;26.30;41.80
23114;DHT22;11726;50.122;8.832;2023-06-04T12:14:31;26.30;42.30
23114;DHT22;11726;50.122;8.832;2023-06-04T12:17:14;26.50;41.50
23114;DHT22;11726;50.122;8.832;2023-06-04T12:19:48;26.40;41.00
23114;DHT22;11726;50.122;8.832;2023-06-04T12:22:15;26.40;42.00
23114;DHT22;11726;50.122;8.832;2023-06-04T12:24:52;26.70;43.10
23114;DHT22;11726;50.122;8.832;2023-06-04T12:27:50;26.60;42.00
23114;DHT22;11726;50.122;8.832;2023-06-04T12:30:46;26.60;41.60
23114;DHT22;11726;50.122;8.832;2023-06-04T12:33:53;26.80;41.70
23114;DHT22;11726;50.122;8.832;2023-06-04T12:36:24;27.00;39.60
23114;DHT22;11726;50.122;8.832;2023-06-04T12:38:52;26.30;38.50
23114;DHT22;11726;50.122;8.832;2023-06-04T12:41:19;26.40;42.40
23114;DHT22;11726;50.122;8.832;2023-06-04T12:43:46;26.70;40.80
23114;DHT22;11726;50.122;8.832;2023-06-04T12:46:24;26.60;39.70
23114;DHT22;11726;50.122;8.832;2023-06-04T12:48:52;27.10;42.00
23114;DHT22;11726;50.122;8.832;2023-06-04T12:51:20;27.30;40.50
23114;DHT22;11726;50.122;8.832;2023-06-04T12:53:47;27.40;40.10
23114;DHT22;11726;50.122;8.832;2023-06-04T12:56:15;27.60;39.80
23114;DHT22;11726;50.122;8.832;2023-06-04T12:58:42;27.70;38.80
23114;DHT22;11726;50.122;8.832;2023-06-04T13:01:21;27.60;38.70
23114;DHT22;11726;50.122;8.832;2023-06-04T13:03:54;27.30;39.00
23114;DHT22;11726;50.122;8.832;2023-06-04T13:06:26;27.80;40.10
23114;DHT22;11726;50.122;8.832;2023-06-04T13:09:15;28.00;39.10
23114;DHT22;11726;50.122;8.832;2023-06-04T13:11:54;28.10;38.30
23114;DHT22;11726;50.122;8.832;2023-06-04T13:15:05;27.70;39.10
23114;DHT22;11726;50.122;8.832;2023-06-04T13:17:32;28.00;39.50
23114;DHT22;11726;50.122;8.832;2023-06-04T13:20:00;28.00;39.70
23114;DHT22;11726;50.122;8.832;2023-06-04T13:22:26;28.40;38.10
23114;DHT22;11726;50.122;8.832;2023-06-04T13:24:53;28.30;36.50
23114;DHT22;11726;50.122;8.832;2023-06-04T13:27:20;28.10;38.50
23114;DHT22;11726;50.122;8.832;2023-06-04T13:29:47;28.10;38.80
23114;DHT22;11726;50.122;8.832;2023-06-04T13:32:13;28.10;38.10
23114;DHT22;11726;50.122;8.832;2023-06-04T13:34:40;28.30;38.20
23114;DHT22;11726;50.122;8.832;2023-06-04T13:37:07;28.30;38.50
23114;DHT22;11726;50.122;8.832;2023-06-04T13:39:38;28.80;38.10
23114;DHT22;11726;50.122;8.832;2023-06-04T13:42:04;28.70;37.80
23114;DHT22;11726;50.122;8.832;2023-06-04T13:44:31;28.90;38.20
23114;DHT22;11726;50.122;8.832;2023-06-04T13:46:59;28.80;38.50
23114;DHT22;11726;50.122;8.832;2023-06-04T13:49:26;29.20;38.30
23114;DHT22;11726;50.122;8.832;2023-06-04T13:51:52;29.40;39.70
23114;DHT22;11726;50.122;8.832;2023-06-04T13:54:19;29.60;39.30
23114;DHT22;11726;50.122;8.832;2023-06-04T13:56:46;29.80;39.30
23114;DHT22;11726;50.122;8.832;2023-06-04T13:59:12;29.50;37.50
23114;DHT22;11726;50.122;8.832;2023-06-04T14:01:40;29.00;37.70
23114;DHT22;11726;50.122;8.832;2023-06-04T14:04:07;29.20;38.50
23114;DHT22;11726;50.122;8.832;2023-06-04T14:06:34;29.20;37.90
23114;DHT22;11726;50.122;8.832;2023-06-04T14:09:03;29.50;38.00
23114;DHT22;11726;50.122;8.832;2023-06-04T14:11:30;29.70;38.20
23114;DHT22;11726;50.122;8.832;2023-06-04T14:13:59;29.80;37.80
23114;DHT22;11726;50.122;8.832;2023-06-04T14:16:25;29.80;37.40
23114;DHT22;11726;50.122;8.832;2023-06-04T14:18:52;29.60;35.20
23114;DHT22;11726;50.122;8.832;2023-06-04T14:21:19;29.10;36.20
23114;DHT22;11726;50.122;8.832;2023-06-04T14:23:47;29.30;35.30
23114;DHT22;11726;50.122;8.832;2023-06-04T14:26:14;29.50;37.20
23114;DHT22;11726;50.122;8.832;2023-06-04T14:28:40;29.10;35.30
23114;DHT22;11726;50.122;8.832;2023-06-04T14:31:07;29.20;36.70
23114;DHT22;11726;50.122;8.832;2023-06-04T14:33:34;29.40;35.40
23114;DHT22;11726;50.122;8.832;2023-06-04T14:36:03;29.60;35.40
23114;DHT22;11726;50.122;8.832;2023-06-04T14:38:30;29.40;35.80
23114;DHT22;11726;50.122;8.832;2023-06-04T14:40:57;29.70;35.60
23114;DHT22;11726;50.122;8.832;2023-06-04T14:43:24;29.80;36.00
23114;DHT22;11726;50.122;8.832;2023-06-04T14:45:51;30.10;35.20
23114;DHT22;11726;50.122;8.832;2023-06-04T14:48:17;30.20;35.40
23114;DHT22;11726;50.122;8.832;2023-06-04T14:50:44;30.00;35.70
23114;DHT22;11726;50.122;8.832;2023-06-04T14:53:11;30.50;36.30
23114;DHT22;11726;50.122;8.832;2023-06-04T14:55:39;30.30;34.90
23114;DHT22;11726;50.122;8.832;2023-06-04T14:58:06;30.60;35.90
23114;DHT22;11726;50.122;8.832;2023-06-04T15:00:32;30.40;35.80
23114;DHT22;11726;50.122;8.832;2023-06-04T15:02:59;30.80;35.30
23114;DHT22;11726;50.122;8.832;2023-06-04T15:05:29;30.80;35.10
23114;DHT22;11726;50.122;8.832;2023-06-04T15:07:56;31.20;34.10
23114;DHT22;11726;50.122;8.832;2023-06-04T15:10:24;31.10;33.70
23114;DHT22;11726;50.122;8.832;2023-06-04T15:12:52;30.40;32.90
23114;DHT22;11726;50.122;8.832;2023-06-04T15:15:19;30.30;33.20
23114;DHT22;11726;50.122;8.832;2023-06-04T15:17:46;30.60;34.90
23114;DHT22;11726;50.122;8.832;2023-06-04T15:20:14;30.50;34.00
23114;DHT22;11726;50.122;8.832;2023-06-04T15:22:41;30.50;33.60
23114;DHT22;11726;50.122;8.832;2023-06-04T15:25:08;30.50;33.60
23114;DHT22;11726;50.122;8.832;2023-06-04T15:27:34;30.70;33.50
23114;DHT22;11726;50.122;8.832;2023-06-04T15:30:02;30.20;33.00
23114;DHT22;11726;50.122;8.832;2023-06-04T15:32:28;30.30;34.00
23114;DHT22;11726;50.122;8.832;2023-06-04T15:34:55;30.70;34.30
23114;DHT22;11726;50.122;8.832;2023-06-04T15:37:24;30.70;34.10
23114;DHT22;11726;50.122;8.832;2023-06-04T15:39:51;30.70;33.80
23114;DHT22;11726;50.122;8.832;2023-06-04T15:42:17;30.90;35.00
23114;DHT22;11726;50.122;8.832;2023-06-04T15:44:44;30.70;34.30
23114;DHT22;11726;50.122;8.832;2023-06-04T15:47:10;31.10;34.20
23114;DHT22;11726;50.122;8.832;2023-06-04T15:49:37;31.20;33.00
23114;DHT22;11726;50.122;8.832;2023-06-04T15:52:04;31.20;34.30
23114;DHT22;11726;50.122;8.832;2023-06-04T15:54:30;30.70;33.90
23114;DHT22;11726;50.122;8.832;2023-06-04T15:57:11;30.70;33.90
23114;DHT22;11726;50.122;8.832;2023-06-04T15:59:38;31.20;33.70